Time;durP1;ratioP1;P1;durP2;ratioP2;P2;SDS_P1;SDS_P2;PMS_P1;PMS_P2;Temp;Humidity;BMP_temperature;BMP_pressure;BME280_temperature;BME280_humidity;BME280_pressure;Samples;Min_cycle;Max_cycle;Signal;HPM_P1;HPM_P2
2021/09/10 00:01:42;;;;;;;;;2.00;2.00;;;;;23.39;59.79;100832.50;5021026;28;45469;-85
2021/09/10 00:04:08;;;;;;;;;2.00;2.00;;;;;23.37;60.14;100831.66;5019942;28;45394;-87
2021/09/10 00:06:33;;;;;;;;;2.50;2.00;;;;;23.39;60.21;100837.81;5019474;28;45256;-85
2021/09/10 00:08:59;;;;;;;;;2.50;1.50;;;;;23.38;59.68;100836.91;5018720;28;45799;-86
2021/09/10 00:11:25;;;;;;;;;4.00;2.00;;;;;23.40;59.99;100840.41;5019333;28;45279;-87
2021/09/10 00:13:51;;;;;;;;;2.00;1.00;;;;;23.40;60.20;100829.84;5020127;28;45370;-86
2021/09/10 00:16:17;;;;;;;;;3.00;2.00;;;;;23.37;60.14;100837.81;5018619;28;45652;-86
2021/09/10 00:18:43;;;;;;;;;1.25;1.25;;;;;23.33;60.40;100836.94;5017434;28;45374;-86
2021/09/10 00:21:09;;;;;;;;;3.00;1.00;;;;;23.32;60.29;100823.75;5019515;28;45269;-87
2021/09/10 00:23:34;;;;;;;;;1.50;1.50;;;;;23.28;60.07;100822.03;5028237;28;45290;-87
2021/09/10 00:26:00;;;;;;;;;3.00;1.50;;;;;23.27;60.65;100825.56;5024866;28;45300;-85
2021/09/10 00:28:26;;;;;;;;;1.75;1.75;;;;;23.23;60.55;100829.97;5020451;28;45530;-88
2021/09/10 00:30:52;;;;;;;;;3.75;2.50;;;;;23.17;60.54;100822.09;5018165;28;45980;-85
2021/09/10 00:33:18;;;;;;;;;0.00;0.00;;;;;23.13;61.22;100815.94;5025469;28;45318;-85
2021/09/10 00:35:44;;;;;;;;;1.50;1.00;;;;;23.12;60.95;100816.84;5027809;28;45392;-85
2021/09/10 00:38:10;;;;;;;;;1.50;1.50;;;;;23.09;60.96;100811.56;5018386;28;45593;-85
2021/09/10 00:40:36;;;;;;;;;3.50;2.25;;;;;23.08;61.33;100823.00;5018114;28;45240;-86
2021/09/10 00:43:02;;;;;;;;;2.50;1.25;;;;;23.06;61.13;100819.50;5017454;28;45413;-86
2021/09/10 00:45:28;;;;;;;;;2.00;2.00;;;;;23.04;61.13;100819.53;5017544;28;45485;-86
2021/09/10 00:47:55;;;;;;;;;2.75;2.75;;;;;23.06;61.06;100835.34;5017817;28;45642;-86
2021/09/10 00:50:21;;;;;;;;;2.25;1.00;;;;;23.06;61.47;100837.13;5026796;28;45670;-86
2021/09/10 00:52:47;;;;;;;;;2.75;2.75;;;;;23.03;61.35;100838.88;5026613;28;45717;-85
2021/09/10 00:55:13;;;;;;;;;2.00;2.00;;;;;23.02;61.16;100829.22;5019666;28;45312;-85
2021/09/10 00:57:39;;;;;;;;;1.00;1.00;;;;;23.09;61.50;100839.75;5017862;28;46050;-85
2021/09/10 01:00:05;;;;;;;;;2.00;2.00;;;;;23.13;61.36;100842.38;5016927;28;45375;-86
2021/09/10 01:02:32;;;;;;;;;3.00;2.00;;;;;23.18;61.19;100845.84;5017904;28;45437;-84
2021/09/10 01:04:57;;;;;;;;;2.25;2.25;;;;;23.21;61.16;100847.63;5017742;28;45623;-84
2021/09/10 01:07:26;;;;;;;;;1.00;1.00;;;;;23.27;61.01;100850.22;5017136;28;46092;-84
2021/09/10 01:09:55;;;;;;;;;3.25;2.25;;;;;23.27;61.30;100842.28;5017522;28;45807;-87
2021/09/10 01:12:21;;;;;;;;;2.00;2.00;;;;;23.31;61.04;100851.97;5017411;28;45411;-87
2021/09/10 01:14:47;;;;;;;;;4.00;3.00;;;;;23.36;61.16;100856.31;5019258;28;45419;-86
2021/09/10 01:17:13;;;;;;;;;1.25;1.25;;;;;23.37;60.97;100852.78;5023297;28;46527;-85
2021/09/10 01:19:39;;;;;;;;;3.00;2.50;;;;;23.37;60.99;100850.13;5024480;28;45522;-87
2021/09/10 01:22:06;;;;;;;;;3.00;2.50;;;;;23.38;60.69;100860.69;5020855;28;45327;-87
2021/09/10 01:24:36;;;;;;;;;3.00;3.00;;;;;23.37;60.67;100852.78;5020657;28;45342;-87
2021/09/10 01:27:02;;;;;;;;;2.50;2.50;;;;;23.39;60.80;100843.09;5019239;28;46194;-87
2021/09/10 01:29:31;;;;;;;;;3.00;3.00;;;;;23.42;60.54;100854.50;5018707;28;45465;-86
2021/09/10 01:31:56;;;;;;;;;1.75;1.00;;;;;23.44;60.88;100855.38;5018733;28;45326;-87
2021/09/10 01:34:22;;;;;;;;;3.00;2.00;;;;;23.45;60.74;100862.41;5021976;28;45481;-87
2021/09/10 01:36:48;;;;;;;;;2.00;2.00;;;;;23.46;60.55;100864.16;5020767;28;45385;-87
2021/09/10 01:39:14;;;;;;;;;1.00;1.00;;;;;23.48;60.42;100867.69;5021274;28;45406;-86
2021/09/10 01:41:39;;;;;;;;;1.00;1.00;;;;;23.43;60.53;100868.59;5029257;28;45373;-87
2021/09/10 01:44:05;;;;;;;;;1.50;1.25;;;;;23.37;60.73;100860.72;5036778;28;44917;-87
2021/09/10 01:46:31;;;;;;;;;2.25;2.25;;;;;23.34;60.62;100857.19;5023758;28;45501;-88
2021/09/10 01:48:56;;;;;;;;;2.00;1.00;;;;;23.30;60.46;100863.41;5020346;28;45335;-88
2021/09/10 01:51:32;;;;;;;;;2.50;1.50;;;;;23.26;60.54;100866.09;5023613;28;45248;-88
2021/09/10 01:53:59;;;;;;;;;1.00;1.00;;;;;23.19;61.25;100874.03;5021191;28;45453;-88
2021/09/10 01:56:26;;;;;;;;;2.25;2.25;;;;;23.14;61.06;100865.25;5019996;28;45477;-88
2021/09/10 01:58:52;;;;;;;;;2.00;2.00;;;;;23.08;61.21;100867.03;5020777;28;45321;-86
2021/09/10 02:01:25;;;;;;;;;2.00;2.00;;;;;23.06;61.44;100863.53;5022586;28;45390;-85
2021/09/10 02:03:51;;;;;;;;;3.75;2.75;;;;;23.10;61.32;100873.19;5019642;28;45339;-85
2021/09/10 02:06:17;;;;;;;;;1.00;1.00;;;;;23.09;61.57;100867.03;5022963;28;45863;-85
2021/09/10 02:08:43;;;;;;;;;3.00;3.00;;;;;23.08;61.31;100854.72;5027147;28;45791;-86
2021/09/10 02:11:08;;;;;;;;;2.50;1.25;;;;;23.11;61.36;100867.03;5028868;28;45286;-84
2021/09/10 02:13:34;;;;;;;;;1.50;1.50;;;;;23.10;61.25;100870.56;5024381;28;45562;-85
2021/09/10 02:15:59;;;;;;;;;3.50;2.50;;;;;23.10;61.03;100871.44;5021526;28;46005;-86
2021/09/10 02:18:25;;;;;;;;;3.75;2.25;;;;;23.11;61.04;100873.19;5021775;28;45430;-85
2021/09/10 02:20:50;;;;;;;;;4.25;2.00;;;;;23.09;61.26;100868.81;5021679;28;45287;-85
2021/09/10 02:23:16;;;;;;;;;2.00;2.00;;;;;23.10;61.05;100871.44;5021688;28;45306;-84
2021/09/10 02:25:42;;;;;;;;;4.00;3.00;;;;;23.07;61.34;100871.44;5018239;28;47760;-82
2021/09/10 02:28:07;;;;;;;;;1.50;1.50;;;;;23.03;60.99;100869.72;5019800;28;45342;-86
2021/09/10 02:30:34;;;;;;;;;2.50;2.00;;;;;23.01;61.96;100874.13;5019666;28;45521;-84
2021/09/10 02:33:00;;;;;;;;;2.50;1.50;;;;;22.98;61.01;100876.78;5020787;28;45445;-86
2021/09/10 02:35:26;;;;;;;;;2.00;2.00;;;;;22.97;61.56;100877.66;5026423;28;45405;-83
2021/09/10 02:37:52;;;;;;;;;2.50;2.50;;;;;22.96;61.44;100879.44;5024872;28;45399;-81
2021/09/10 02:40:17;;;;;;;;;2.50;2.50;;;;;22.95;61.60;100871.50;5023430;28;45276;-84
2021/09/10 02:42:43;;;;;;;;;2.50;1.75;;;;;22.94;61.83;100868.00;5020536;28;45387;-84
2021/09/10 02:45:09;;;;;;;;;2.75;2.25;;;;;22.97;61.51;100873.28;5019344;28;45371;-84
2021/09/10 02:47:35;;;;;;;;;4.00;3.75;;;;;22.97;61.64;100870.63;5018925;28;45358;-86
2021/09/10 02:50:00;;;;;;;;;4.25;2.50;;;;;22.96;61.65;100873.25;5019892;28;45382;-86
2021/09/10 02:52:26;;;;;;;;;3.25;3.00;;;;;22.94;61.65;100868.00;5019988;28;45237;-86
2021/09/10 02:54:51;;;;;;;;;3.00;3.00;;;;;22.95;61.88;100872.41;5019038;28;46430;-85
2021/09/10 02:57:17;;;;;;;;;1.50;1.50;;;;;22.97;61.57;100875.91;5019069;28;45306;-87
2021/09/10 02:59:43;;;;;;;;;2.00;2.00;;;;;22.95;61.65;100867.13;5018738;28;45316;-85
2021/09/10 03:02:08;;;;;;;;;3.00;3.00;;;;;22.93;61.63;100868.03;5028171;28;45321;-86
2021/09/10 03:04:34;;;;;;;;;2.00;2.00;;;;;22.95;61.74;100864.47;5029364;28;45405;-86
2021/09/10 03:06:59;;;;;;;;;2.50;2.50;;;;;22.96;61.66;100863.59;5022738;28;45347;-85
2021/09/10 03:09:26;;;;;;;;;4.25;2.75;;;;;22.98;62.15;100850.38;5019036;28;45258;-86
2021/09/10 03:11:52;;;;;;;;;3.00;2.00;;;;;22.99;61.62;100858.31;5018507;28;45378;-87
2021/09/10 03:14:18;;;;;;;;;4.25;2.00;;;;;22.99;61.49;100858.31;5018493;28;45850;-86
2021/09/10 03:16:43;;;;;;;;;3.50;3.00;;;;;22.99;61.56;100860.03;5019202;28;45296;-86
2021/09/10 03:19:09;;;;;;;;;2.75;2.75;;;;;23.01;61.65;100861.78;5022718;28;45338;-87
2021/09/10 03:21:35;;;;;;;;;3.00;3.00;;;;;23.02;61.58;100860.03;5022386;28;45228;-86
2021/09/10 03:24:01;;;;;;;;;3.50;2.25;;;;;23.06;61.59;100868.81;5020110;28;47844;-86
2021/09/10 03:26:27;;;;;;;;;3.00;3.00;;;;;23.07;61.36;100860.00;5025400;28;45193;-86
2021/09/10 03:28:52;;;;;;;;;3.00;3.00;;;;;23.04;61.39;100863.56;5029021;28;45231;-86
2021/09/10 03:31:18;;;;;;;;;3.00;3.00;;;;;23.04;61.50;100861.78;5033740;28;45397;-86
2021/09/10 03:33:44;;;;;;;;;2.75;2.75;;;;;23.04;61.46;100858.28;5029544;28;45351;-88
2021/09/10 03:36:09;;;;;;;;;3.00;3.00;;;;;23.04;61.31;100866.19;5026061;28;45465;-86
2021/09/10 03:38:35;;;;;;;;;3.50;3.00;;;;;22.99;61.68;100862.69;5020464;28;45310;-86
2021/09/10 03:41:01;;;;;;;;;4.00;3.00;;;;;22.95;61.76;100864.47;5018668;28;45410;-85
2021/09/10 03:43:26;;;;;;;;;3.00;3.00;;;;;22.91;61.98;100860.09;5019018;28;46396;-86
2021/09/10 03:45:52;;;;;;;;;3.75;3.00;;;;;22.86;62.19;100867.16;5021107;28;45977;-85
2021/09/10 03:48:17;;;;;;;;;6.00;5.00;;;;;22.85;62.15;100860.13;5021239;28;45421;-86
2021/09/10 03:50:43;;;;;;;;;4.00;4.00;;;;;22.85;62.40;100865.41;5020056;28;45295;-85
2021/09/10 03:53:09;;;;;;;;;4.00;4.00;;;;;22.82;62.55;100871.59;5019387;28;45277;-85
2021/09/10 03:55:34;;;;;;;;;6.50;4.25;;;;;22.78;62.63;100867.19;5026084;28;45355;-84
2021/09/10 03:58:00;;;;;;;;;5.00;5.00;;;;;22.79;62.62;100873.34;5025257;28;45291;-85
2021/09/10 04:00:26;;;;;;;;;4.25;3.25;;;;;22.81;62.34;100872.47;5022150;28;45252;-86
2021/09/10 04:02:52;;;;;;;;;5.50;4.00;;;;;22.79;62.66;100866.31;5018656;28;45707;-86
2021/09/10 04:05:18;;;;;;;;;4.00;3.00;;;;;22.75;62.90;100864.56;5018642;28;45236;-86
2021/09/10 04:07:43;;;;;;;;;4.00;4.00;;;;;22.70;63.02;100859.31;5017764;28;45585;-84
2021/09/10 04:10:09;;;;;;;;;3.25;3.25;;;;;22.71;62.71;100862.84;5018705;28;45567;-84
2021/09/10 04:12:35;;;;;;;;;6.25;5.00;;;;;22.72;62.83;100861.97;5017746;28;45327;-85
2021/09/10 04:15:00;;;;;;;;;5.00;5.00;;;;;22.71;62.80;100857.56;5022281;28;45251;-87
2021/09/10 04:17:26;;;;;;;;;4.25;4.25;;;;;22.70;62.91;100858.44;5022488;28;45435;-85
2021/09/10 04:19:51;;;;;;;;;5.00;5.00;;;;;22.72;62.92;100856.69;5025700;28;45419;-86
2021/09/10 04:22:17;;;;;;;;;5.50;3.00;;;;;22.73;62.96;100863.72;5026828;28;45748;-86
2021/09/10 04:24:43;;;;;;;;;6.75;5.00;;;;;22.76;62.84;100865.47;5021258;28;45441;-85
2021/09/10 04:27:08;;;;;;;;;7.75;5.00;;;;;22.77;62.96;100861.94;5019077;28;45375;-85
2021/09/10 04:29:34;;;;;;;;;5.50;4.00;;;;;22.78;62.50;100861.06;5019188;28;45455;-87
2021/09/10 04:31:59;;;;;;;;;4.50;4.50;;;;;22.76;62.57;100863.69;5018953;28;45947;-86
2021/09/10 04:34:25;;;;;;;;;3.75;3.75;;;;;22.78;62.55;100856.66;5017376;28;45405;-86
2021/09/10 04:36:51;;;;;;;;;4.00;3.75;;;;;22.78;62.97;100858.41;5016397;28;45296;-86
2021/09/10 04:39:19;;;;;;;;;4.00;3.25;;;;;22.80;62.16;100861.91;5019700;28;45605;-88
2021/09/10 04:41:45;;;;;;;;;4.75;4.25;;;;;22.77;62.53;100861.94;5017996;28;45573;-86
2021/09/10 04:44:13;;;;;;;;;3.00;3.00;;;;;22.75;62.54;100858.44;5019652;28;45426;-86
2021/09/10 04:46:42;;;;;;;;;7.00;4.75;;;;;22.77;62.58;100867.22;5022449;28;45330;-87
2021/09/10 04:49:07;;;;;;;;;5.50;3.75;;;;;22.77;62.54;100861.94;5028790;28;45580;-86
2021/09/10 04:51:34;;;;;;;;;5.50;5.50;;;;;22.77;62.37;100862.81;5020598;28;46955;-85
2021/09/10 04:54:02;;;;;;;;;4.75;4.75;;;;;22.78;62.14;100864.56;5019089;28;45318;-87
2021/09/10 04:56:28;;;;;;;;;2.75;2.75;;;;;22.78;62.59;100863.69;5019471;28;45311;-87
2021/09/10 04:58:54;;;;;;;;;5.25;3.75;;;;;22.77;62.46;100869.84;5020047;28;45586;-87
2021/09/10 05:01:20;;;;;;;;;5.00;5.00;;;;;22.79;62.44;100862.78;5020848;28;45489;-89
2021/09/10 05:03:45;;;;;;;;;4.00;4.00;;;;;22.78;62.09;100864.56;5018280;28;45243;-88
2021/09/10 05:06:11;;;;;;;;;6.75;4.00;;;;;22.80;62.47;100870.72;5018485;28;45267;-87
2021/09/10 05:08:36;;;;;;;;;6.00;5.25;;;;;22.84;62.61;100879.50;5017336;28;45522;-87
2021/09/10 05:11:02;;;;;;;;;5.50;5.00;;;;;22.87;62.45;100877.72;5018064;28;46918;-86
2021/09/10 05:13:28;;;;;;;;;3.75;3.50;;;;;22.90;62.36;100881.22;5027283;28;44774;-88
2021/09/10 05:15:55;;;;;;;;;5.25;3.25;;;;;22.91;61.73;100880.34;5026705;28;45236;-86
2021/09/10 05:18:20;;;;;;;;;4.25;4.25;;;;;22.90;61.96;100881.22;5027046;28;45593;-88
2021/09/10 05:20:46;;;;;;;;;6.50;6.00;;;;;22.91;62.15;100881.22;5017393;28;45538;-86
2021/09/10 05:23:11;;;;;;;;;4.00;3.75;;;;;22.90;61.85;100887.38;5017092;28;45959;-83
2021/09/10 05:25:37;;;;;;;;;7.75;5.00;;;;;22.90;61.65;100883.88;5017489;28;45319;-87
2021/09/10 05:28:03;;;;;;;;;7.00;4.00;;;;;22.93;61.77;100899.69;5016854;28;45741;-86
2021/09/10 05:30:28;;;;;;;;;4.75;4.00;;;;;22.92;61.78;100888.25;5019711;28;45375;-86
2021/09/10 05:32:54;;;;;;;;;3.00;3.00;;;;;22.94;61.60;100899.69;5026592;28;45434;-87
2021/09/10 05:35:19;;;;;;;;;5.75;4.50;;;;;22.94;61.63;100896.19;5025002;28;45299;-87
2021/09/10 05:37:45;;;;;;;;;4.50;4.50;;;;;22.94;61.59;100896.19;5027609;28;45315;-89
2021/09/10 05:40:11;;;;;;;;;5.00;5.00;;;;;22.93;61.59;100897.06;5030852;28;46743;-84
2021/09/10 05:42:37;;;;;;;;;5.00;4.00;;;;;22.89;61.72;100898.84;5036473;28;45257;-87
2021/09/10 05:45:06;;;;;;;;;6.75;4.00;;;;;22.86;61.72;100912.91;5038047;28;45302;-87
2021/09/10 05:47:31;;;;;;;;;4.75;4.75;;;;;22.78;61.65;100912.06;5030766;28;45276;-86
2021/09/10 05:49:57;;;;;;;;;7.00;5.00;;;;;22.81;62.01;100919.09;5027416;28;45571;-87
2021/09/10 05:52:23;;;;;;;;;5.75;4.25;;;;;22.76;61.59;100911.19;5028826;28;45457;-87
2021/09/10 05:54:48;;;;;;;;;4.00;4.00;;;;;22.76;61.99;100919.13;5028346;28;45378;-88
2021/09/10 05:57:14;;;;;;;;;6.50;5.50;;;;;22.75;61.93;100921.78;5028032;28;45031;-85
2021/09/10 05:59:40;;;;;;;;;5.00;4.50;;;;;22.76;61.95;100934.94;5042908;28;45377;-89
2021/09/10 06:02:06;;;;;;;;;5.00;4.00;;;;;22.71;61.94;100923.56;5039541;28;45338;-89
2021/09/10 06:04:32;;;;;;;;;5.00;5.00;;;;;22.69;61.94;100922.69;5038761;28;45421;-87
2021/09/10 06:06:58;;;;;;;;;5.00;4.75;;;;;22.69;62.10;100934.09;5040757;28;45173;-86
2021/09/10 06:09:23;;;;;;;;;8.75;8.25;;;;;22.66;62.22;100943.78;5028761;28;46823;-85
2021/09/10 06:11:49;;;;;;;;;10.50;8.75;;;;;22.64;61.94;100942.91;5021414;28;45382;-88
2021/09/10 06:14:15;;;;;;;;;6.75;6.00;;;;;22.61;62.28;100940.31;5023375;28;45410;-84
2021/09/10 06:16:40;;;;;;;;;4.50;4.50;;;;;22.61;62.57;100932.38;5036734;28;45454;-81
2021/09/10 06:19:06;;;;;;;;;5.50;4.25;;;;;22.65;62.50;100935.00;5035682;28;45994;-83
2021/09/10 06:21:32;;;;;;;;;9.00;7.50;;;;;22.67;62.31;100933.25;5038900;28;45402;-81
2021/09/10 06:24:01;;;;;;;;;6.00;4.00;;;;;22.71;62.33;100936.75;5041864;28;45329;-83
2021/09/10 06:26:27;;;;;;;;;5.75;5.75;;;;;22.71;62.39;100947.31;5058018;28;45136;-84
2021/09/10 06:28:53;;;;;;;;;4.50;4.50;;;;;22.72;62.25;100944.66;5052772;28;45397;-83
2021/09/10 06:31:18;;;;;;;;;7.75;5.00;;;;;22.68;62.23;100948.16;5042756;28;45390;-87
2021/09/10 06:33:44;;;;;;;;;5.00;5.00;;;;;22.65;62.27;100949.94;5042826;28;45434;-87
2021/09/10 06:36:09;;;;;;;;;4.25;4.25;;;;;22.69;62.56;100946.44;5042371;28;45557;-86
2021/09/10 06:38:35;;;;;;;;;6.25;5.00;;;;;22.69;62.68;100957.84;5040650;28;45803;-81
2021/09/10 06:41:01;;;;;;;;;6.50;5.75;;;;;22.68;62.72;100956.09;5057655;28;46882;-86
2021/09/10 06:43:26;;;;;;;;;5.75;5.00;;;;;22.68;62.80;100955.22;5037887;28;45436;-79
2021/09/10 06:45:52;;;;;;;;;5.00;5.00;;;;;22.67;62.80;100950.81;5037701;28;45411;-81
2021/09/10 06:48:18;;;;;;;;;4.50;4.50;;;;;22.68;62.91;100963.16;5056546;28;47482;-89
2021/09/10 06:50:43;;;;;;;;;5.00;5.00;;;;;22.69;62.90;100963.13;5043375;28;45385;-91
2021/09/10 06:53:10;;;;;;;;;3.75;3.00;;;;;22.68;62.66;100964.00;5044214;28;45217;-81
2021/09/10 06:55:37;;;;;;;;;5.50;4.25;;;;;22.66;62.78;100971.06;5043061;28;45465;-85
2021/09/10 06:58:03;;;;;;;;;6.50;5.50;;;;;22.64;62.85;100969.31;5054924;28;45410;-84
2021/09/10 07:00:28;;;;;;;;;5.00;4.00;;;;;22.60;62.83;100972.84;5068716;28;45174;-89
2021/09/10 07:02:54;;;;;;;;;5.00;5.00;;;;;22.61;62.95;100974.63;5052500;28;45378;-81
2021/09/10 07:05:20;;;;;;;;;5.00;3.50;;;;;22.59;63.06;100977.22;5069793;28;45343;-91
2021/09/10 07:07:45;;;;;;;;;6.00;4.00;;;;;22.61;63.04;100983.38;5053539;28;45951;-91
2021/09/10 07:10:11;;;;;;;;;7.25;5.50;;;;;22.62;63.28;100979.88;5049869;28;45366;-81
2021/09/10 07:12:37;;;;;;;;;4.50;4.50;;;;;22.65;63.21;100989.53;5042596;28;45769;-87
2021/09/10 07:15:04;;;;;;;;;5.50;5.00;;;;;22.64;63.08;100998.34;5045500;28;45427;-85
2021/09/10 07:17:32;;;;;;;;;4.00;4.00;;;;;22.59;62.79;100989.56;5045811;28;45596;-86
2021/09/10 07:19:58;;;;;;;;;6.00;4.75;;;;;22.49;63.04;100986.94;5040472;28;45567;-86
2021/09/10 07:22:24;;;;;;;;;5.75;5.50;;;;;22.48;63.17;100990.47;5031025;28;45398;-89
2021/09/10 07:24:50;;;;;;;;;7.00;5.00;;;;;22.48;63.38;100990.47;5049216;28;45465;-86
2021/09/10 07:27:16;;;;;;;;;6.25;3.25;;;;;22.51;63.43;100987.84;5043219;28;45769;-84
2021/09/10 07:29:42;;;;;;;;;5.50;5.00;;;;;22.55;63.00;100986.91;5046249;28;45535;-89
2021/09/10 07:32:08;;;;;;;;;4.00;4.00;;;;;22.62;63.25;100987.78;5047783;28;45362;-82
2021/09/10 07:34:33;;;;;;;;;5.75;5.75;;;;;22.64;63.08;100979.84;5042082;28;45723;-83
2021/09/10 07:36:59;;;;;;;;;5.00;5.00;;;;;22.65;63.22;100985.16;5043424;28;46135;-85
2021/09/10 07:39:25;;;;;;;;;2.25;2.25;;;;;22.67;63.24;100993.06;5051934;28;45684;-94
2021/09/10 07:41:51;;;;;;;;;4.75;4.50;;;;;22.68;63.00;100997.44;5036449;28;45172;-91
2021/09/10 07:44:17;;;;;;;;;4.75;4.75;;;;;22.68;63.24;100994.81;5028641;28;45296;-93
2021/09/10 07:46:44;;;;;;;;;5.00;5.00;;;;;22.74;63.06;101002.69;5031532;28;46168;-94
2021/09/10 07:49:11;;;;;;;;;7.00;6.00;;;;;22.76;62.60;101000.09;5039607;28;45267;-89
2021/09/10 07:51:37;;;;;;;;;3.00;3.00;;;;;22.75;62.59;101009.75;5064119;28;45836;-96
2021/09/10 07:54:06;;;;;;;;;5.00;5.00;;;;;22.78;62.74;101014.16;5052756;28;45557;-90
2021/09/10 07:56:32;;;;;;;;;6.00;4.00;;;;;22.76;62.71;101010.63;5041646;28;45234;-84
2021/09/10 07:58:58;;;;;;;;;6.00;5.00;;;;;22.74;63.03;101002.69;5040025;28;45157;-82
2021/09/10 08:01:24;;;;;;;;;5.25;5.00;;;;;22.80;62.81;101007.97;5042774;28;45287;-82
2021/09/10 08:03:50;;;;;;;;;6.00;6.00;;;;;22.87;62.57;101007.06;5043139;28;45567;-87
2021/09/10 08:06:15;;;;;;;;;4.25;4.25;;;;;22.93;62.20;101018.50;5061558;28;47674;-80
2021/09/10 08:08:41;;;;;;;;;4.00;4.00;;;;;22.96;62.43;101014.09;5043291;28;45429;-90
2021/09/10 08:11:07;;;;;;;;;4.00;3.25;;;;;23.03;62.07;101021.09;5042766;28;45374;-80
2021/09/10 08:13:33;;;;;;;;;9.25;5.00;;;;;23.09;61.79;101017.56;5041562;28;45384;-82
2021/09/10 08:15:59;;;;;;;;;6.00;4.00;;;;;23.13;61.79;101024.59;5040486;28;46481;-82
2021/09/10 08:18:28;;;;;;;;;5.00;5.00;;;;;23.16;61.74;101021.06;5040944;28;45359;-82
2021/09/10 08:20:56;;;;;;;;;5.00;4.00;;;;;23.21;61.32;101029.00;5027574;28;45252;-82
2021/09/10 08:23:23;;;;;;;;;3.25;3.00;;;;;23.25;61.07;101028.09;5063867;28;45452;-84
2021/09/10 08:25:49;;;;;;;;;4.75;4.00;;;;;23.28;61.18;101034.25;5065393;28;45667;-80
2021/09/10 08:28:20;;;;;;;;;4.50;4.00;;;;;23.32;61.14;101032.47;5047735;28;45284;-80
2021/09/10 08:30:50;;;;;;;;;4.50;4.00;;;;;23.31;60.49;101023.69;5046344;28;45330;-81
2021/09/10 08:33:18;;;;;;;;;5.00;3.75;;;;;23.31;60.79;101028.06;5044406;28;45224;-82
2021/09/10 08:35:44;;;;;;;;;7.25;4.00;;;;;23.37;60.64;101035.97;5047697;28;45256;-89
2021/09/10 08:38:11;;;;;;;;;4.75;4.75;;;;;23.42;60.03;101041.25;5037429;28;45426;-84
2021/09/10 08:40:37;;;;;;;;;3.50;3.00;;;;;23.43;60.07;101030.66;5037143;28;45338;-91
2021/09/10 08:43:13;;;;;;;;;6.00;3.00;;;;;23.47;59.72;101035.06;5064552;28;45314;-81
2021/09/10 08:45:40;;;;;;;;;3.50;2.75;;;;;23.49;59.77;101033.25;5071899;28;45357;-86
2021/09/10 08:48:12;;;;;;;;;3.00;3.00;;;;;23.49;59.46;101038.53;5075434;28;45234;-86
2021/09/10 08:50:37;;;;;;;;;4.00;4.00;;;;;23.44;59.15;101047.38;5050524;28;45405;-83
2021/09/10 08:53:07;;;;;;;;;3.00;2.25;;;;;23.32;58.38;101045.69;5050476;28;45481;-93
2021/09/10 08:55:33;;;;;;;;;3.00;3.00;;;;;23.19;58.99;101048.38;5043888;28;45224;-88
2021/09/10 08:57:58;;;;;;;;;2.00;2.00;;;;;23.11;58.99;101043.97;5044878;28;45172;-85
2021/09/10 09:00:33;;;;;;;;;4.25;2.50;;;;;23.11;58.77;101036.06;5047327;28;45334;-88
2021/09/10 09:03:02;;;;;;;;;3.00;3.00;;;;;23.21;58.86;101055.41;5021071;28;45179;-86
2021/09/10 09:05:29;;;;;;;;;3.25;3.00;;;;;23.29;58.78;101050.97;5018390;28;45402;-85
2021/09/10 09:08:11;;;;;;;;;2.50;2.50;;;;;23.36;58.40;101063.28;5016352;28;45796;-81
2021/09/10 09:11:05;;;;;;;;;4.00;3.00;;;;;23.42;58.46;101057.97;5023910;28;45839;-83
2021/09/10 09:13:39;;;;;;;;;3.50;3.00;;;;;23.49;58.60;101051.75;5048935;28;45420;-91
2021/09/10 09:16:29;;;;;;;;;3.00;3.00;;;;;23.57;58.22;101046.44;5054866;28;45156;-90
2021/09/10 09:19:08;;;;;;;;;3.75;3.00;;;;;23.69;58.38;101041.97;5032967;28;45224;-90
2021/09/10 09:21:35;;;;;;;;;4.50;3.50;;;;;23.79;57.64;101052.50;5049540;28;45203;-83
2021/09/10 09:24:22;;;;;;;;;5.25;4.50;;;;;23.84;57.76;101049.81;5034117;28;45313;-86
2021/09/10 09:26:51;;;;;;;;;4.50;3.75;;;;;23.90;57.84;101046.25;5052893;28;45475;-92
2021/09/10 09:29:19;;;;;;;;;2.25;2.25;;;;;23.93;56.92;101056.78;5046144;28;45461;-89
2021/09/10 09:32:01;;;;;;;;;4.00;4.00;;;;;23.94;57.28;101047.97;5046243;28;45411;-89
2021/09/10 09:34:47;;;;;;;;;4.75;3.75;;;;;23.99;57.37;101055.91;5045808;28;45421;-88
2021/09/10 09:37:25;;;;;;;;;3.50;3.50;;;;;24.03;57.28;101055.00;5044775;28;45418;-82
2021/09/10 09:39:59;;;;;;;;;2.75;2.75;;;;;24.01;57.06;101060.31;5032413;28;45695;-85
2021/09/10 09:42:35;;;;;;;;;4.25;3.50;;;;;24.04;56.78;101057.63;5046685;28;46096;-87
2021/09/10 09:45:17;;;;;;;;;3.00;1.75;;;;;24.10;56.50;101054.94;5031041;28;44826;-88
2021/09/10 09:47:43;;;;;;;;;7.75;3.25;;;;;24.13;56.72;101063.75;5054748;28;45075;-85
2021/09/10 09:50:22;;;;;;;;;5.00;5.00;;;;;24.10;56.40;101060.25;5055806;28;45818;-88
2021/09/10 09:52:50;;;;;;;;;2.50;2.25;;;;;24.08;57.01;101069.09;5027926;28;45535;-85
2021/09/10 09:55:18;;;;;;;;;4.00;4.00;;;;;24.09;56.48;101058.47;5055009;28;45177;-84
2021/09/10 09:57:45;;;;;;;;;3.75;3.00;;;;;24.15;56.26;101056.66;5061915;28;45320;-87
2021/09/10 10:00:14;;;;;;;;;4.25;3.25;;;;;24.21;56.27;101046.06;5053277;28;45251;-92
2021/09/10 10:02:41;;;;;;;;;4.00;4.00;;;;;24.30;56.19;101055.69;5057394;28;45256;-84
2021/09/10 10:05:08;;;;;;;;;3.25;3.00;;;;;24.33;55.53;101058.28;5060240;28;45219;-83
2021/09/10 10:07:58;;;;;;;;;5.75;3.50;;;;;24.32;55.12;101059.16;5061756;28;45448;-85
2021/09/10 10:10:55;;;;;;;;;;;;;;;;;;;;;
2021/09/10 10:13:36;;;;;;;;;2.50;2.50;;;;;24.16;55.77;101058.41;5048039;28;67221;-83
2021/09/10 10:17:06;;;;;;;;;;;;;;;;;;;;;
2021/09/10 10:19:44;;;;;;;;;3.50;2.25;;;;;23.94;56.40;101047.97;5027552;28;73927;-83
2021/09/10 10:22:11;;;;;;;;;5.00;5.00;;;;;23.91;56.41;101037.44;5047926;28;45564;-83
2021/09/10 10:24:49;;;;;;;;;0.25;0.25;;;;;23.95;55.89;101050.66;5024739;28;45474;-83
2021/09/10 10:27:35;;;;;;;;;4.50;4.50;;;;;23.95;56.40;101037.44;5029469;28;45527;-83
2021/09/10 10:30:05;;;;;;;;;3.00;3.00;;;;;24.02;56.50;101037.38;5022536;28;46177;-84
2021/09/10 10:32:36;;;;;;;;;3.00;3.00;;;;;24.09;55.53;101041.72;5036544;28;45456;-84
2021/09/10 10:35:29;;;;;;;;;3.75;3.75;;;;;24.18;54.89;101039.03;5027517;28;45510;-83
2021/09/10 10:38:06;;;;;;;;;2.50;2.50;;;;;24.26;54.84;101025.69;5041600;28;45492;-84
2021/09/10 10:40:49;;;;;;;;;3.25;3.25;;;;;24.34;54.06;101020.34;5038954;28;46658;-84
2021/09/10 10:43:21;;;;;;;;;4.25;4.25;;;;;24.43;54.41;101028.19;5056320;28;45178;-82
2021/09/10 10:45:46;;;;;;;;;3.00;3.00;;;;;24.53;53.51;101029.00;5046078;28;45817;-86
2021/09/10 10:50:57;;;;;;;;;6.00;4.50;;;;;24.77;53.60;101025.25;5061980;28;45256;-86
2021/09/10 10:53:23;;;;;;;;;3.00;3.00;;;;;24.87;53.08;101026.91;5061128;28;45717;-87
2021/09/10 10:55:48;;;;;;;;;3.25;3.25;;;;;24.97;52.52;101009.13;5054144;28;44732;-89
2021/09/10 10:58:25;;;;;;;;;4.00;3.00;;;;;25.09;51.68;101015.19;5059401;28;45354;-90
2021/09/10 11:00:58;;;;;;;;;2.75;2.00;;;;;25.02;52.45;101025.84;5048409;28;45807;-90
2021/09/10 11:03:23;;;;;;;;;5.00;3.00;;;;;24.94;51.61;101018.91;5035537;28;45306;-88
2021/09/10 11:05:51;;;;;;;;;3.00;3.00;;;;;24.83;51.33;101025.19;5028860;28;45521;-90
2021/09/10 11:08:40;;;;;;;;;2.50;2.25;;;;;24.68;55.43;101055.34;5029775;28;45537;-87
2021/09/10 11:11:06;;;;;;;;;4.25;3.25;;;;;24.45;58.33;101031.72;5024996;28;45472;-86
2021/09/10 11:13:31;;;;;;;;;6.50;5.75;;;;;24.35;59.00;101030.91;5024524;28;45384;-86
2021/09/10 11:15:57;;;;;;;;;3.00;3.00;;;;;24.30;58.40;101037.16;5026199;28;45507;-88
2021/09/10 11:18:24;;;;;;;;;3.00;3.00;;;;;24.24;58.99;101024.88;5024190;28;45377;-88
2021/09/10 11:20:53;;;;;;;;;5.50;3.00;;;;;24.05;58.79;101030.28;5035941;28;45907;-88
2021/09/10 11:23:36;;;;;;;;;3.00;2.25;;;;;23.90;59.54;101033.88;5028453;28;45446;-85
2021/09/10 11:26:05;;;;;;;;;4.75;4.75;;;;;23.76;60.37;101028.69;5038563;28;45563;-87
2021/09/10 11:28:37;;;;;;;;;4.00;4.00;;;;;23.66;60.27;101019.06;5044028;28;45478;-87
2021/09/10 11:31:04;;;;;;;;;7.25;5.75;;;;;23.63;60.56;101016.44;5042807;28;45275;-88
2021/09/10 11:33:41;;;;;;;;;4.25;4.25;;;;;23.62;60.37;101022.63;5035492;28;45326;-89